Nearby METAR Reports

 

KHOT - Hot Springs, Arkansas, USA
Distance from station: W 8mi, 14km
Updated: 04/18/2019 7:06am
Rain, Mist, Overcast
Rain, Mist, Overcast
 Wind from WSW
Wind: WSW 9 mph , 15 km/h
Temperature: 63°F , 17°C
Dew Point: 63°F , 17°C
Humidity: 100%
Barometer: 29.78 inHg , 1008.5 hPa
Summary: Rain, Mist
Clouds: Overcast
Visibility: 5 miles , 8 km
Cloud details: Few Clouds 500 ft
Overcast 9000 ft
2019/04/18 12:06 KHOT 181206Z AUTO 24008KT 5SM RA BR FEW005 OVC090 17/17 A2978 RMK AO2 P0002 T01670167
KMWT - Mount Ida, Arkansas, USA
Distance from station: W 36mi, 58km
Updated: 04/18/2019 7:10am
Rain, Mist, Overcast
Rain, Mist, Overcast
 Wind from E
Wind: E 3 mph , 6 km/h
Temperature: 61°F , 16°C
Dew Point: 59°F , 15°C
Humidity: 94%
Barometer: 29.71 inHg , 1006.1 hPa
Summary: Rain, Mist
Clouds: Overcast
Visibility: 3 miles , 5 km
Cloud details: Overcast 6000 ft
2019/04/18 12:10 KMWT 181210Z AUTO 09003KT 3SM RA BR OVC060 16/15 A2971 RMK AO2 PRESFR P0008 T01610150
 
KLIT - Little Rock, Arkansas, USA
Distance from station: ENE 45mi, 73km
Updated: 04/18/2019 6:53am
Rain, Mist, Overcast
Rain, Mist, Overcast
 Wind from SE
Wind: SE 6 mph , 9 km/h
Temperature: 61°F , 16°C
Dew Point: 61°F , 16°C
Humidity: 100%
Barometer: 29.77 inHg , 1008.1 hPa
Summary: Rain, Mist
Clouds: Overcast
Visibility: 3 miles , 5 km
Cloud details: Partly cloudy 1000 ft
Mostly cloudy 5000 ft
Overcast 7000 ft
2019/04/18 11:53 KLIT 181153Z 14005KT 3SM RA BR SCT010 BKN050 OVC070 16/16 A2977 RMK AO2 TSE34 SLP081 OCNL LTGICCG DSNT NE-SW CB DSNT NE-SW MOV NE P0035 60418 70418 T01610156 10189 20156 51018
KLRF - Little Rock Afb, Arkansas, USA
Distance from station: NE 56mi, 89km
Updated: 04/18/2019 6:56am
Light rain, Mist, Overcast
Light rain, Mist, Overcast
 Wind from SSE
Wind: SSE 5 mph , 7 km/h
Temperature: 61°F , 16°C
Dew Point: 61°F , 16°C
Humidity: 100%
Barometer: 29.77 inHg , 1008.1 hPa
Summary: Light rain, Mist
Clouds: Overcast
Visibility: 5 miles , 8 km
Cloud details: Mostly cloudy 200 ft
Overcast 8500 ft
2019/04/18 11:56 KLRF 181156Z 16004KT 5SM -RA BR BKN002 OVC085 16/16 A2977 RMK AO2A LTG DSNT NE AND S TSE17 PRESRR SLP082 P0030 60217 70217 T01640164 10196 20163 53014 RVRNO $